Alto Crest, New Mexico
Current Conditions -  °F | °C
As of 3:35 PM on Monday 24 Nov 2014 (Local Time) from KSRR Reporting Station
Clear Clear  
Wind Chill: -1°   Ceiling: Unl
Heat Index:   Visibility: 10mi
Dew Point: -18°   Wind: 9mph
Humidity: 20%   Direction: 320°NW
Pressure: 30.07"   Gusts: 22mph
Location:  33.3909°N, 105.634°W
Report Text: KSRR 242235Z AUTO 32008G19KT 040V040 10SM CLR 03/M18 A3007 RMK AO2
Loading
Personal Weather Stations






























Interactive Weather Map New forecast layout! Learn more

10-Day Weather Forecast

Advertisements
Track Severe Weather on mobile